createdAt,value
2023-09-17T00:01:20.596Z,72.96
2023-09-17T00:03:47.504Z,72.84
2023-09-17T00:06:15.648Z,72.67
2023-09-17T00:08:42.390Z,72.74
2023-09-17T00:11:09.791Z,72.58
2023-09-17T00:13:36.904Z,72.62
2023-09-17T00:16:03.796Z,72.47
2023-09-17T00:18:30.648Z,72.18
2023-09-17T00:20:57.666Z,72.37
2023-09-17T00:23:25.992Z,72.12
2023-09-17T00:25:53.071Z,71.94
2023-09-17T00:28:19.855Z,71.71
2023-09-17T00:30:46.653Z,71.79
2023-09-17T00:33:13.650Z,71.78
2023-09-17T00:35:40.345Z,71.79
2023-09-17T00:38:07.154Z,71.69
2023-09-17T00:40:38.560Z,71.74
2023-09-17T00:43:05.447Z,71.71
2023-09-17T00:45:33.188Z,71.73
2023-09-17T00:48:02.613Z,71.82
2023-09-17T00:50:29.608Z,72.14
2023-09-17T00:52:56.386Z,72.61
2023-09-17T00:55:23.258Z,72.98
2023-09-17T00:57:51.548Z,73.46
2023-09-17T01:00:22.444Z,73.75
2023-09-17T01:02:49.916Z,74.22
2023-09-17T01:05:17.384Z,74.38
2023-09-17T01:07:45.566Z,74.40
2023-09-17T01:10:12.657Z,74.73
2023-09-17T01:12:40.018Z,74.89
2023-09-17T01:15:11.309Z,74.85
2023-09-17T01:17:38.544Z,75.11
2023-09-17T01:20:29.918Z,75.16
2023-09-17T01:23:00.428Z,75.42
2023-09-17T01:25:43.688Z,75.41
2023-09-17T01:28:13.532Z,75.55
2023-09-17T01:30:43.253Z,75.74
2023-09-17T01:33:13.050Z,75.91
2023-09-17T01:35:49.188Z,75.97
2023-09-17T01:38:20.006Z,76.23
2023-09-17T01:40:49.761Z,76.46
2023-09-17T01:43:21.617Z,76.48
2023-09-17T01:45:48.964Z,76.66
2023-09-17T01:48:17.255Z,76.75
2023-09-17T01:50:45.184Z,76.74
2023-09-17T01:53:14.956Z,77.28
2023-09-17T01:55:43.341Z,77.26
2023-09-17T01:58:11.487Z,77.19
2023-09-17T02:00:40.236Z,77.16
2023-09-17T02:03:07.267Z,77.18
2023-09-17T02:05:34.143Z,77.44
2023-09-17T02:08:00.946Z,77.45
2023-09-17T02:10:27.740Z,77.54
2023-09-17T02:12:54.496Z,77.50
2023-09-17T02:15:21.482Z,77.44
2023-09-17T02:17:51.998Z,77.57
2023-09-17T02:20:19.289Z,77.66
2023-09-17T02:22:46.855Z,77.68
2023-09-17T02:25:13.789Z,77.66
2023-09-17T02:27:41.796Z,77.66
2023-09-17T02:30:09.943Z,77.83
2023-09-17T02:32:38.828Z,77.86
2023-09-17T02:35:09.512Z,78.01
2023-09-17T02:37:36.943Z,77.95
2023-09-17T02:40:05.795Z,78.09
2023-09-17T02:42:32.557Z,78.48
2023-09-17T02:44:59.382Z,77.97
2023-09-17T02:47:27.910Z,78.44
2023-09-17T02:49:54.775Z,78.78
2023-09-17T02:52:23.226Z,78.79
2023-09-17T02:54:50.089Z,78.97
2023-09-17T02:57:17.293Z,78.99
2023-09-17T02:59:44.120Z,79.38
2023-09-17T03:02:10.900Z,79.32
2023-09-17T03:04:37.781Z,79.30
2023-09-17T03:07:05.563Z,79.73
2023-09-17T03:09:35.175Z,79.67
2023-09-17T03:12:02.935Z,79.73
2023-09-17T03:14:29.702Z,79.87
2023-09-17T03:16:56.757Z,80.04
2023-09-17T03:19:23.866Z,80.08
2023-09-17T03:21:50.577Z,79.96
2023-09-17T03:24:18.169Z,80.05
2023-09-17T03:26:46.240Z,80.17
2023-09-17T03:29:13.838Z,80.18
2023-09-17T03:31:42.407Z,80.42
2023-09-17T03:34:09.232Z,80.32
2023-09-17T03:36:36.659Z,80.41
2023-09-17T03:39:06.860Z,80.49
2023-09-17T03:41:34.064Z,80.61
2023-09-17T03:44:02.282Z,80.64
2023-09-17T03:46:31.450Z,80.86
2023-09-17T03:48:58.373Z,81.17
2023-09-17T03:51:25.318Z,80.99
2023-09-17T03:53:52.564Z,81.17
2023-09-17T03:56:19.627Z,81.19
2023-09-17T03:58:46.589Z,81.15
2023-09-17T04:01:15.140Z,81.22
2023-09-17T04:03:42.178Z,81.32
2023-09-17T04:06:09.099Z,81.46
2023-09-17T04:08:36.273Z,81.72
2023-09-17T04:11:05.424Z,81.58
2023-09-17T04:13:33.267Z,81.56
2023-09-17T04:16:00.092Z,81.84
2023-09-17T04:18:28.252Z,82.04
2023-09-17T04:20:54.988Z,82.02
2023-09-17T04:23:21.884Z,82.19
2023-09-17T04:25:48.859Z,82.17
2023-09-17T04:28:15.630Z,82.24
2023-09-17T04:30:42.308Z,82.43
2023-09-17T04:33:09.157Z,82.40
2023-09-17T04:35:37.822Z,82.53
2023-09-17T04:38:05.420Z,82.54
2023-09-17T04:40:32.379Z,82.69
2023-09-17T04:42:59.094Z,82.58
2023-09-17T04:45:35.198Z,82.90
2023-09-17T04:48:02.214Z,82.73
2023-09-17T04:50:29.576Z,82.84
2023-09-17T04:52:57.947Z,82.94
2023-09-17T04:55:26.399Z,83.01
2023-09-17T04:57:53.610Z,83.16
2023-09-17T05:00:21.596Z,83.35
2023-09-17T05:02:52.201Z,83.66
2023-09-17T05:05:24.076Z,83.41
2023-09-17T05:07:53.766Z,83.63
2023-09-17T05:10:22.482Z,83.73
2023-09-17T05:12:49.597Z,83.69
2023-09-17T05:15:16.460Z,83.85
2023-09-17T05:17:43.512Z,83.80
2023-09-17T05:20:12.444Z,84.09
2023-09-17T05:22:39.354Z,83.99
2023-09-17T05:25:09.430Z,84.10
2023-09-17T05:27:38.309Z,84.09
2023-09-17T05:30:06.709Z,84.02
2023-09-17T05:32:33.565Z,84.28
2023-09-17T05:35:07.199Z,84.26
2023-09-17T05:37:33.911Z,84.37
2023-09-17T05:40:00.851Z,84.46
2023-09-17T05:42:27.661Z,84.52
2023-09-17T05:44:55.733Z,84.63
2023-09-17T05:47:22.565Z,84.74
2023-09-17T05:49:49.598Z,84.65
2023-09-17T05:52:17.604Z,84.99
2023-09-17T05:54:44.339Z,85.01
2023-09-17T05:57:11.287Z,85.01
2023-09-17T05:59:38.094Z,85.09
2023-09-17T06:02:06.526Z,85.37
2023-09-17T06:04:33.594Z,85.30
2023-09-17T06:07:00.260Z,85.28
2023-09-17T06:09:27.120Z,85.32
2023-09-17T06:11:53.927Z,85.46
2023-09-17T06:14:20.837Z,85.50
2023-09-17T06:16:57.592Z,85.55
2023-09-17T06:19:28.479Z,85.54
2023-09-17T06:21:55.278Z,85.64
2023-09-17T06:24:22.220Z,85.75
2023-09-17T06:26:48.969Z,85.82
2023-09-17T06:29:15.772Z,85.67
2023-09-17T06:31:43.071Z,85.92
2023-09-17T06:34:10.812Z,85.86
2023-09-17T06:36:39.369Z,86.00
2023-09-17T06:39:07.552Z,85.78
2023-09-17T06:41:37.441Z,86.00
2023-09-17T06:44:05.745Z,85.92
2023-09-17T06:46:33.242Z,85.78
2023-09-17T06:49:00.252Z,85.73
2023-09-17T06:51:27.147Z,85.78
2023-09-17T06:53:55.250Z,86.02
2023-09-17T06:56:25.014Z,85.92
2023-09-17T06:58:51.982Z,86.10
2023-09-17T07:01:19.466Z,86.12
2023-09-17T07:03:46.228Z,86.12
2023-09-17T07:06:13.012Z,86.31
2023-09-17T07:08:40.000Z,86.28
2023-09-17T07:11:08.110Z,86.33
2023-09-17T07:13:35.316Z,86.21
2023-09-17T07:16:02.179Z,86.19
2023-09-17T07:18:31.598Z,86.31
2023-09-17T07:20:58.684Z,86.26
2023-09-17T07:23:26.725Z,86.48
2023-09-17T07:25:53.575Z,86.45
2023-09-17T07:28:22.213Z,86.33
2023-09-17T07:30:55.076Z,86.42
2023-09-17T07:33:22.006Z,86.55
2023-09-17T07:35:49.503Z,86.51
2023-09-17T07:38:17.384Z,86.62
2023-09-17T07:40:44.509Z,86.55
2023-09-17T07:43:12.130Z,86.64
2023-09-17T07:45:40.283Z,86.64
2023-09-17T07:48:07.513Z,86.65
2023-09-17T07:50:34.354Z,86.86
2023-09-17T07:53:01.164Z,86.75
2023-09-17T07:55:28.025Z,86.71
2023-09-17T07:57:56.053Z,86.78
2023-09-17T08:00:22.941Z,86.81
2023-09-17T08:02:51.680Z,87.18
2023-09-17T08:05:19.058Z,86.91
2023-09-17T08:07:46.920Z,86.94
2023-09-17T08:10:14.132Z,86.88
2023-09-17T08:12:40.892Z,87.08
2023-09-17T08:15:09.115Z,86.95
2023-09-17T08:17:36.080Z,87.04
2023-09-17T08:20:05.919Z,87.01
2023-09-17T08:22:33.779Z,86.90
2023-09-17T08:25:00.686Z,87.10
2023-09-17T08:27:27.577Z,86.98
2023-09-17T08:29:54.307Z,86.99
2023-09-17T08:32:21.069Z,87.40
2023-09-17T08:34:48.028Z,87.11
2023-09-17T08:37:17.173Z,86.93
2023-09-17T08:39:43.873Z,87.08
2023-09-17T08:42:11.859Z,87.16
2023-09-17T08:44:39.670Z,87.17
2023-09-17T08:47:06.626Z,87.24
2023-09-17T08:49:33.583Z,87.20
2023-09-17T08:52:05.280Z,87.37
2023-09-17T08:54:39.014Z,87.28
2023-09-17T08:57:07.328Z,87.32
2023-09-17T08:59:38.702Z,87.36
2023-09-17T09:02:09.277Z,87.41
2023-09-17T09:04:37.905Z,87.27
2023-09-17T09:07:07.175Z,87.34
2023-09-17T09:09:37.411Z,87.39
2023-09-17T09:12:05.246Z,87.34
2023-09-17T09:14:32.240Z,87.44
2023-09-17T09:17:01.591Z,87.63
2023-09-17T09:19:28.353Z,87.62
2023-09-17T09:21:55.550Z,87.51
2023-09-17T09:24:24.424Z,87.53
2023-09-17T09:26:53.354Z,87.65
2023-09-17T09:29:21.591Z,87.83
2023-09-17T09:31:48.589Z,87.71
2023-09-17T09:34:15.477Z,87.63
2023-09-17T09:36:45.803Z,87.80
2023-09-17T09:39:16.230Z,87.92
2023-09-17T09:41:43.730Z,87.91
2023-09-17T09:44:11.822Z,87.81
2023-09-17T09:46:38.587Z,87.62
2023-09-17T09:49:06.057Z,87.88
2023-09-17T09:51:37.099Z,87.91
2023-09-17T09:54:04.845Z,87.79
2023-09-17T09:56:32.363Z,87.85
2023-09-17T09:59:00.589Z,87.99
2023-09-17T10:01:29.722Z,87.92
2023-09-17T10:04:00.113Z,88.06
2023-09-17T10:06:27.445Z,88.09
2023-09-17T10:08:55.042Z,88.06
2023-09-17T10:11:22.643Z,88.22
2023-09-17T10:13:49.835Z,88.15
2023-09-17T10:16:17.155Z,88.12
2023-09-17T10:18:46.493Z,88.14
2023-09-17T10:21:15.780Z,88.20
2023-09-17T10:23:43.301Z,88.26
2023-09-17T10:26:11.470Z,88.39
2023-09-17T10:28:39.616Z,88.24
2023-09-17T10:31:09.252Z,88.42
2023-09-17T10:33:37.623Z,88.41
2023-09-17T10:36:09.110Z,88.43
2023-09-17T10:38:37.109Z,88.66
2023-09-17T10:41:06.474Z,88.68
2023-09-17T10:43:36.246Z,88.78
2023-09-17T10:46:04.736Z,88.70
2023-09-17T10:48:33.119Z,88.78
2023-09-17T10:51:00.698Z,88.94
2023-09-17T10:53:29.451Z,88.83
2023-09-17T10:56:01.937Z,88.88
2023-09-17T10:58:34.590Z,88.80
2023-09-17T11:01:02.673Z,88.77
2023-09-17T11:03:34.787Z,88.78
2023-09-17T11:06:07.341Z,88.68
2023-09-17T11:08:35.886Z,88.75
2023-09-17T11:11:04.983Z,88.70
2023-09-17T11:13:31.960Z,88.72
2023-09-17T11:16:01.120Z,88.77
2023-09-17T11:18:27.885Z,88.76
2023-09-17T11:21:01.994Z,88.55
2023-09-17T11:23:43.433Z,88.42
2023-09-17T11:26:12.985Z,87.99
2023-09-17T11:28:46.479Z,87.98
2023-09-17T11:31:16.239Z,88.04
2023-09-17T11:33:43.816Z,87.73
2023-09-17T11:36:11.454Z,87.81
2023-09-17T11:38:46.533Z,87.75
2023-09-17T11:41:19.514Z,87.49
2023-09-17T11:43:49.929Z,87.34
2023-09-17T11:46:17.782Z,87.26
2023-09-17T11:48:45.969Z,87.17
2023-09-17T11:51:23.960Z,86.97
2023-09-17T11:53:58.503Z,86.95
2023-09-17T11:56:28.251Z,86.61
2023-09-17T11:59:04.082Z,86.54
2023-09-17T12:01:35.217Z,86.32
2023-09-17T12:04:06.345Z,86.24
2023-09-17T12:06:37.031Z,86.27
2023-09-17T12:09:17.380Z,86.44
2023-09-17T12:11:47.716Z,86.70
2023-09-17T12:14:15.257Z,86.74
2023-09-17T12:16:42.417Z,86.72
2023-09-17T12:19:17.803Z,86.61
2023-09-17T12:21:47.158Z,86.55
2023-09-17T12:24:26.376Z,85.93
2023-09-17T12:27:07.832Z,86.09
2023-09-17T12:29:35.236Z,85.90
2023-09-17T12:32:03.785Z,85.79
2023-09-17T12:34:31.079Z,85.52
2023-09-17T12:36:57.940Z,85.51
2023-09-17T12:39:26.310Z,85.60
2023-09-17T12:41:53.719Z,85.70
2023-09-17T12:44:20.703Z,85.73
2023-09-17T12:46:48.754Z,85.73
2023-09-17T12:49:15.753Z,85.62
2023-09-17T12:51:42.637Z,85.45
2023-09-17T12:54:10.196Z,85.15
2023-09-17T12:56:39.391Z,85.10
2023-09-17T12:59:06.400Z,84.73
2023-09-17T13:01:33.418Z,85.23
2023-09-17T13:04:05.856Z,85.30
2023-09-17T13:06:36.126Z,85.51
2023-09-17T13:09:03.701Z,85.52
2023-09-17T13:11:31.217Z,85.76
2023-09-17T13:14:01.003Z,85.51
2023-09-17T13:16:27.899Z,85.65
2023-09-17T13:18:56.367Z,85.58
2023-09-17T13:21:23.458Z,85.76
2023-09-17T13:23:50.490Z,85.73
2023-09-17T13:26:17.506Z,85.57
2023-09-17T13:28:44.437Z,85.82
2023-09-17T13:31:12.602Z,85.72
2023-09-17T13:33:40.036Z,85.79
2023-09-17T13:36:10.446Z,85.83
2023-09-17T13:38:41.980Z,85.69
2023-09-17T13:41:09.201Z,85.75
2023-09-17T13:43:36.201Z,85.77
2023-09-17T13:46:03.874Z,85.91
2023-09-17T13:48:32.096Z,85.84
2023-09-17T13:50:59.195Z,85.79
2023-09-17T13:53:26.036Z,85.96
2023-09-17T13:55:53.029Z,86.19
2023-09-17T13:58:19.887Z,86.10
2023-09-17T14:00:46.590Z,86.55
2023-09-17T14:03:15.892Z,86.46
2023-09-17T14:05:45.033Z,86.63
2023-09-17T14:08:12.790Z,86.90
2023-09-17T14:10:42.438Z,86.93
2023-09-17T14:13:09.789Z,87.18
2023-09-17T14:15:37.976Z,87.10
2023-09-17T14:18:04.996Z,87.23
2023-09-17T14:20:32.019Z,87.38
2023-09-17T14:23:01.500Z,87.51
2023-09-17T14:25:28.314Z,87.55
2023-09-17T14:27:55.079Z,87.62
2023-09-17T14:30:24.478Z,87.46
2023-09-17T14:32:55.527Z,87.56
2023-09-17T14:35:22.287Z,87.37
2023-09-17T14:37:49.597Z,87.25
2023-09-17T14:40:18.065Z,87.21
2023-09-17T14:42:44.912Z,87.28
2023-09-17T14:45:11.690Z,87.44
2023-09-17T14:47:40.444Z,87.55
2023-09-17T14:50:09.734Z,87.49
2023-09-17T14:52:37.337Z,87.59
2023-09-17T14:55:05.471Z,87.56
2023-09-17T14:57:37.026Z,87.55
2023-09-17T15:00:06.235Z,87.75
2023-09-17T15:02:33.462Z,87.96
2023-09-17T15:05:02.436Z,87.90
2023-09-17T15:07:29.385Z,88.03
2023-09-17T15:09:56.199Z,88.15
2023-09-17T15:12:22.935Z,88.30
2023-09-17T15:14:51.614Z,88.40
2023-09-17T15:17:19.457Z,88.18
2023-09-17T15:19:46.406Z,88.35
2023-09-17T15:22:13.355Z,88.25
2023-09-17T15:24:40.198Z,88.33
2023-09-17T15:27:06.971Z,88.49
2023-09-17T15:29:33.678Z,88.44
2023-09-17T15:32:02.165Z,88.50
2023-09-17T15:34:29.678Z,88.57
2023-09-17T15:36:56.560Z,88.74
2023-09-17T15:39:25.661Z,88.68
2023-09-17T15:41:53.576Z,88.58
2023-09-17T15:44:22.648Z,88.70
2023-09-17T15:46:49.614Z,88.53
2023-09-17T15:49:17.863Z,88.55
2023-09-17T15:51:44.660Z,88.71
2023-09-17T15:54:11.608Z,88.34
2023-09-17T15:56:38.469Z,88.27
2023-09-17T15:59:05.606Z,88.35
2023-09-17T16:01:32.480Z,88.25
2023-09-17T16:03:59.411Z,88.20
2023-09-17T16:06:27.815Z,88.35
2023-09-17T16:08:55.148Z,88.62
2023-09-17T16:11:22.054Z,88.53
2023-09-17T16:13:48.912Z,88.68
2023-09-17T16:16:15.760Z,88.80
2023-09-17T16:18:43.187Z,88.89
2023-09-17T16:21:11.989Z,88.99
2023-09-17T16:23:41.528Z,88.94
2023-09-17T16:26:08.366Z,89.06
2023-09-17T16:28:36.229Z,89.12
2023-09-17T16:31:03.186Z,89.15
2023-09-17T16:33:30.027Z,89.20
2023-09-17T16:35:56.842Z,89.20
2023-09-17T16:38:23.642Z,89.27
2023-09-17T16:40:51.973Z,89.20
2023-09-17T16:43:18.840Z,89.30
2023-09-17T16:45:46.307Z,89.37
2023-09-17T16:48:13.472Z,89.54
2023-09-17T16:50:40.176Z,89.42
2023-09-17T16:53:07.985Z,89.74
2023-09-17T16:55:37.391Z,89.51
2023-09-17T16:58:07.068Z,89.73
2023-09-17T17:00:34.061Z,89.80
2023-09-17T17:03:00.969Z,89.87
2023-09-17T17:05:27.990Z,90.13
2023-09-17T17:07:55.076Z,90.05
2023-09-17T17:10:21.974Z,90.01
2023-09-17T17:12:48.667Z,90.25
2023-09-17T17:15:16.784Z,90.15
2023-09-17T17:17:43.617Z,90.41
2023-09-17T17:20:11.193Z,90.37
2023-09-17T17:22:45.197Z,90.45
2023-09-17T17:25:12.439Z,90.59
2023-09-17T17:27:39.305Z,90.48
2023-09-17T17:30:10.691Z,90.44
2023-09-17T17:32:41.980Z,90.71
2023-09-17T17:35:09.626Z,90.75
2023-09-17T17:37:36.819Z,90.84
2023-09-17T17:40:04.003Z,90.99
2023-09-17T17:42:30.834Z,90.91
2023-09-17T17:44:57.707Z,91.04
2023-09-17T17:47:24.934Z,91.06
2023-09-17T17:49:55.120Z,91.25
2023-09-17T17:52:22.171Z,90.98
2023-09-17T17:54:49.273Z,91.10
2023-09-17T17:57:16.596Z,91.37
2023-09-17T17:59:43.417Z,91.21
2023-09-17T18:02:10.499Z,91.22
2023-09-17T18:04:38.311Z,91.39
2023-09-17T18:07:06.475Z,91.45
2023-09-17T18:09:33.323Z,91.46
2023-09-17T18:12:01.075Z,91.31
2023-09-17T18:14:27.863Z,91.45
2023-09-17T18:16:55.348Z,91.61
2023-09-17T18:19:22.152Z,91.51
2023-09-17T18:21:49.623Z,91.68
2023-09-17T18:24:17.867Z,91.63
2023-09-17T18:26:45.171Z,91.70
2023-09-17T18:29:12.236Z,91.66
2023-09-17T18:31:39.165Z,91.82
2023-09-17T18:34:06.016Z,91.88
2023-09-17T18:36:35.637Z,91.61
2023-09-17T18:39:02.616Z,91.95
2023-09-17T18:41:30.832Z,91.84
2023-09-17T18:43:57.869Z,91.72
2023-09-17T18:46:25.542Z,91.69
2023-09-17T18:48:52.313Z,91.76
2023-09-17T18:51:21.542Z,91.91
2023-09-17T18:53:48.512Z,92.00
2023-09-17T18:56:16.028Z,91.69
2023-09-17T18:58:44.181Z,91.77
2023-09-17T19:01:11.199Z,91.71
2023-09-17T19:03:38.293Z,91.79
2023-09-17T19:06:06.680Z,91.73
2023-09-17T19:08:36.210Z,91.65
2023-09-17T19:11:04.549Z,91.97
2023-09-17T19:13:31.440Z,91.72
2023-09-17T19:15:59.558Z,91.60
2023-09-17T19:18:26.434Z,91.61
2023-09-17T19:21:06.921Z,91.58
2023-09-17T19:23:33.671Z,91.50
2023-09-17T19:26:00.591Z,91.59
2023-09-17T19:28:27.356Z,91.61
2023-09-17T19:30:54.070Z,91.59
2023-09-17T19:33:22.398Z,91.56
2023-09-17T19:35:49.126Z,91.44
2023-09-17T19:38:15.908Z,91.43
2023-09-17T19:40:42.657Z,91.49
2023-09-17T19:43:09.392Z,91.49
2023-09-17T19:45:36.219Z,91.70
2023-09-17T19:48:05.241Z,91.85
2023-09-17T19:50:33.841Z,91.69
2023-09-17T19:53:00.786Z,91.69
2023-09-17T19:55:27.712Z,91.82
2023-09-17T19:57:54.540Z,91.71
2023-09-17T20:00:21.351Z,91.66
2023-09-17T20:02:48.178Z,91.58
2023-09-17T20:05:15.246Z,91.57
2023-09-17T20:07:43.427Z,91.63
2023-09-17T20:10:15.729Z,91.86
2023-09-17T20:12:42.733Z,91.74
2023-09-17T20:15:11.310Z,91.85
2023-09-17T20:17:38.190Z,91.98
2023-09-17T20:20:06.104Z,91.92
2023-09-17T20:22:42.099Z,91.92
2023-09-17T20:25:11.401Z,91.92
2023-09-17T20:27:38.557Z,91.82
2023-09-17T20:30:06.537Z,91.86
2023-09-17T20:32:33.391Z,92.02
2023-09-17T20:35:00.206Z,92.05
2023-09-17T20:37:26.987Z,92.01
2023-09-17T20:39:53.683Z,92.01
2023-09-17T20:42:22.250Z,91.93
2023-09-17T20:44:49.097Z,91.99
2023-09-17T20:47:15.900Z,92.26
2023-09-17T20:49:42.707Z,92.11
2023-09-17T20:52:09.510Z,92.14
2023-09-17T20:54:36.309Z,92.02
2023-09-17T20:57:03.448Z,92.16
2023-09-17T20:59:33.107Z,92.27
2023-09-17T21:02:01.097Z,92.18
2023-09-17T21:04:29.581Z,92.18
2023-09-17T21:06:56.345Z,92.39
2023-09-17T21:09:27.698Z,92.35
2023-09-17T21:11:55.028Z,92.38
2023-09-17T21:14:22.031Z,92.27
2023-09-17T21:16:50.340Z,92.51
2023-09-17T21:19:17.105Z,92.40
2023-09-17T21:21:44.005Z,92.59
2023-09-17T21:24:10.817Z,92.76
2023-09-17T21:26:37.696Z,92.55
2023-09-17T21:29:04.838Z,92.96
2023-09-17T21:31:31.974Z,92.54
2023-09-17T21:34:00.133Z,92.72
2023-09-17T21:36:26.913Z,92.60
2023-09-17T21:38:54.019Z,92.54
2023-09-17T21:41:21.003Z,92.45
2023-09-17T21:43:47.708Z,92.67
2023-09-17T21:46:14.453Z,92.59
2023-09-17T21:48:41.292Z,92.65
2023-09-17T21:51:09.378Z,92.68
2023-09-17T21:53:36.111Z,92.76
2023-09-17T21:56:03.025Z,92.77
2023-09-17T21:58:29.960Z,92.89
2023-09-17T22:00:56.822Z,92.74
2023-09-17T22:03:23.693Z,92.61
2023-09-17T22:05:51.543Z,92.78
2023-09-17T22:08:21.204Z,92.78
2023-09-17T22:10:48.176Z,93.02
2023-09-17T22:13:16.850Z,92.97
2023-09-17T22:15:44.615Z,92.80
2023-09-17T22:18:13.886Z,92.84
2023-09-17T22:20:42.429Z,92.74
2023-09-17T22:23:09.160Z,92.89
2023-09-17T22:25:39.902Z,93.04
2023-09-17T22:28:07.269Z,93.14
2023-09-17T22:30:34.214Z,93.04
2023-09-17T22:33:01.207Z,93.20
2023-09-17T22:35:28.049Z,93.24
2023-09-17T22:37:54.905Z,93.10
2023-09-17T22:40:21.665Z,93.15
2023-09-17T22:42:49.827Z,93.07
2023-09-17T22:45:16.637Z,93.12
2023-09-17T22:47:43.422Z,93.20
2023-09-17T22:50:10.761Z,93.25
2023-09-17T22:52:37.610Z,93.33
2023-09-17T22:55:04.832Z,93.20
2023-09-17T22:57:31.540Z,93.25
2023-09-17T22:59:59.612Z,93.15
2023-09-17T23:02:27.995Z,93.13
2023-09-17T23:04:55.901Z,93.17
2023-09-17T23:07:22.698Z,93.09
2023-09-17T23:09:51.291Z,93.20
2023-09-17T23:12:18.015Z,93.24
2023-09-17T23:14:44.745Z,93.07
2023-09-17T23:17:12.890Z,93.23
2023-09-17T23:19:39.986Z,93.24
2023-09-17T23:22:06.824Z,93.18
2023-09-17T23:24:33.859Z,93.14
2023-09-17T23:27:00.569Z,93.23
2023-09-17T23:29:28.322Z,93.56
2023-09-17T23:31:55.197Z,93.51
2023-09-17T23:34:25.706Z,93.31
2023-09-17T23:36:52.654Z,93.38
2023-09-17T23:39:19.448Z,93.49
2023-09-17T23:41:46.161Z,93.30
2023-09-17T23:44:13.728Z,93.41
2023-09-17T23:46:40.772Z,93.41
2023-09-17T23:49:07.613Z,93.54
2023-09-17T23:51:35.725Z,93.43
2023-09-17T23:54:02.467Z,93.47
2023-09-17T23:56:29.320Z,93.46
2023-09-17T23:58:56.195Z,93.49
